Terminal Aerodrome Forecast
Issued by NWS Louisville, KY

Home | Current Version | Previous Version | Text Only | Print | Product List | Glossary On
Versions: 1 2 3 4 5 6 7 8 9 10 11 12 13 14
000
FTUS43 KLMK 212341
TAFLEX
TAF
KLEX 212341Z 2200/2224 14004KT P6SM VCSH OVC050
     FM220400 14005KT 5SM -SHRA OVC025
     FM220700 15004KT 4SM -SHRA OVC015
     FM220900 15004KT 3SM BR BKN008
     FM221500 29006KT 5SM BR BKN015=

USA.gov is the U.S. government's official web portal to all federal, state and local government web resources and services.